Hier das METAR für die 16 wichtigsten Deutschen Flughäfen.
(dauert ein wenig.... ich muss laden.....)

ODER
METAR nach ICAO Code suchen

Berlin - Schönefeld

EDDB

METAR
EDDB 232020Z 16002KT CAVOK 18/13 Q1013 NOSIG
EDDBMETAR lang
Berlin-Schoenefeld, Germany (EDDB) 52-23N 013-31E 50M
Jul 23, 2017 - 04:20 PM EDT / 2017.07.23 2020 UTC
Wind: from the SSE (160 degrees) at 2 MPH (2 KT):0
Visibility: greater than 7 mile(s):0
Temperature: 64 F (18 C)
Dew Point: 55 F (13 C)
Relative Humidity: 72%
Pressure (altimeter): 29.91 in. Hg (1013 hPa)
ob: EDDB 232020Z 16002KT CAVOK 18/13 Q1013 NOSIG
cycle: 20

Dresden

EDDC

METAR
EDDC 232020Z 26003KT 240V300 CAVOK 20/12 Q1014
EDDCMETAR lang
Dresden-Klotzsche, Germany (EDDC) 51-08N 013-45E 232M
Jul 23, 2017 - 04:20 PM EDT / 2017.07.23 2020 UTC
Wind: from the W (260 degrees) at 3 MPH (3 KT) (direction variable):0
Visibility: greater than 7 mile(s):0
Temperature: 68 F (20 C)
Dew Point: 53 F (12 C)
Relative Humidity: 59%
Pressure (altimeter): 29.94 in. Hg (1014 hPa)
ob: EDDC 232020Z 26003KT 240V300 CAVOK 20/12 Q1014
cycle: 20

Erfurt

EDDE

METAR
EDDE 232020Z 22006KT CAVOK 14/09 Q1015
EDDEMETAR lang
Erfurt-Bindersleben, Germany (EDDE) 50-59N 010-58E 322M
Jul 23, 2017 - 04:20 PM EDT / 2017.07.23 2020 UTC
Wind: from the SW (220 degrees) at 7 MPH (6 KT):0
Visibility: greater than 7 mile(s):0
Temperature: 57 F (14 C)
Dew Point: 48 F (9 C)
Relative Humidity: 71%
Pressure (altimeter): 29.97 in. Hg (1015 hPa)
ob: EDDE 232020Z 22006KT CAVOK 14/09 Q1015
cycle: 20

Frankfurt a. Main

EDDF

METAR
EDDF 232020Z 19005KT CAVOK 18/11 Q1014 NOSIG
EDDFMETAR lang
Frankfurt / M-Flughafen, Germany (EDDF) 50-03N 008-36E 113M
Jul 23, 2017 - 04:20 PM EDT / 2017.07.23 2020 UTC
Wind: from the S (190 degrees) at 6 MPH (5 KT):0
Visibility: greater than 7 mile(s):0
Temperature: 64 F (18 C)
Dew Point: 51 F (11 C)
Relative Humidity: 63%
Pressure (altimeter): 29.94 in. Hg (1014 hPa)
ob: EDDF 232020Z 19005KT CAVOK 18/11 Q1014 NOSIG
cycle: 20

Münster Osnabrück

EDDG

METAR
EDDG 232020Z VRB02KT 9999 FEW040 BKN100 14/13 Q1013 NOSIG
EDDGMETAR lang
Muenster / Osnabrueck, Germany (EDDG) 52-08N 007-42E 53M
Jul 23, 2017 - 04:20 PM EDT / 2017.07.23 2020 UTC
Wind: Variable at 2 MPH (2 KT):0
Visibility: greater than 7 mile(s):0
Sky conditions: mostly cloudy
Temperature: 57 F (14 C)
Dew Point: 55 F (13 C)
Relative Humidity: 93%
Pressure (altimeter): 29.91 in. Hg (1013 hPa)
ob: EDDG 232020Z VRB02KT 9999 FEW040 BKN100 14/13 Q1013 NOSIG
cycle: 20

Hamburg

EDDH

METAR
EDDH 232020Z VRB01KT 9999 FEW036 BKN090 16/14 Q1012 NOSIG
EDDHMETAR lang
Hamburg-Fuhlsbuettel, Germany (EDDH) 53-38N 010-00E 15M
Jul 23, 2017 - 04:20 PM EDT / 2017.07.23 2020 UTC
Wind: Variable at 1 MPH (1 KT):0
Visibility: greater than 7 mile(s):0
Sky conditions: mostly cloudy
Temperature: 60 F (16 C)
Dew Point: 57 F (14 C)
Relative Humidity: 87%
Pressure (altimeter): 29.88 in. Hg (1012 hPa)
ob: EDDH 232020Z VRB01KT 9999 FEW036 BKN090 16/14 Q1012 NOSIG
cycle: 20

Köln - Bonn

EDDK

METAR
EDDK 232020Z 17004KT 9999 -RA FEW048 BKN070 16/12 Q1014 NOSIG
EDDKMETAR lang
Koeln / Bonn, Germany (EDDK) 50-52N 007-10E 100M
Jul 23, 2017 - 04:20 PM EDT / 2017.07.23 2020 UTC
Wind: from the S (170 degrees) at 5 MPH (4 KT):0
Visibility: greater than 7 mile(s):0
Sky conditions: mostly cloudy
Weather: light rain
Temperature: 60 F (16 C)
Dew Point: 53 F (12 C)
Relative Humidity: 77%
Pressure (altimeter): 29.94 in. Hg (1014 hPa)
ob: EDDK 232020Z 17004KT 9999 -RA FEW048 BKN070 16/12 Q1014 NOSIG
cycle: 20

Düsseldorf

EDDL

METAR
EDDL 232020Z 21009KT 9999 FEW035 SCT080 BKN250 17/11 Q1013 NOSIG
EDDLMETAR lang
Duesseldorf, Germany (EDDL) 51-18N 006-46E 41M
Jul 23, 2017 - 04:20 PM EDT / 2017.07.23 2020 UTC
Wind: from the SSW (210 degrees) at 10 MPH (9 KT):0
Visibility: greater than 7 mile(s):0
Sky conditions: mostly cloudy
Temperature: 62 F (17 C)
Dew Point: 51 F (11 C)
Relative Humidity: 67%
Pressure (altimeter): 29.91 in. Hg (1013 hPa)
ob: EDDL 232020Z 21009KT 9999 FEW035 SCT080 BKN250 17/11 Q1013 NOSIG
cycle: 20

München

EDDM

METAR
EDDM 232020Z 18005KT 9999 FEW038 BKN070 BKN090 16/15 Q1017 NOSIG
EDDMMETAR lang
Munchen, Germany (EDDM) 48-21N 011-47E
Jul 23, 2017 - 04:20 PM EDT / 2017.07.23 2020 UTC
Wind: from the S (180 degrees) at 6 MPH (5 KT):0
Visibility: greater than 7 mile(s):0
Sky conditions: mostly cloudy
Temperature: 60 F (16 C)
Dew Point: 59 F (15 C)
Relative Humidity: 93%
Pressure (altimeter): 30.03 in. Hg (1017 hPa)
ob: EDDM 232020Z 18005KT 9999 FEW038 BKN070 BKN090 16/15 Q1017 NOSIG
cycle: 20

Nürnberg

EDDN

METAR
EDDN 232020Z 00000KT CAVOK 18/10 Q1016
EDDNMETAR lang
Nuernberg, Germany (EDDN) 49-30N 011-03E 318M
Jul 23, 2017 - 04:20 PM EDT / 2017.07.23 2020 UTC
Wind: Calm:0
Visibility: greater than 7 mile(s):0
Temperature: 64 F (18 C)
Dew Point: 50 F (10 C)
Relative Humidity: 59%
Pressure (altimeter): 30.00 in. Hg (1016 hPa)
ob: EDDN 232020Z 00000KT CAVOK 18/10 Q1016
cycle: 20

Leipzig - Halle

EDDP

METAR
EDDP 232020Z 25008KT CAVOK 17/10 Q1014 NOSIG
EDDPMETAR lang
Leipzig-Schkeuditz, Germany (EDDP) 51-25N 012-14E 149M
Jul 23, 2017 - 04:20 PM EDT / 2017.07.23 2020 UTC
Wind: from the WSW (250 degrees) at 9 MPH (8 KT):0
Visibility: greater than 7 mile(s):0
Temperature: 62 F (17 C)
Dew Point: 50 F (10 C)
Relative Humidity: 63%
Pressure (altimeter): 29.94 in. Hg (1014 hPa)
ob: EDDP 232020Z 25008KT CAVOK 17/10 Q1014 NOSIG
cycle: 20

Saarbrücken

EDDR

METAR
EDDR 232020Z 22006KT CAVOK 17/10 Q1015 NOSIG
EDDRMETAR lang
Saarbruecken / Ensheim, Germany (EDDR) 49-13N 007-07E 320M
Jul 23, 2017 - 04:20 PM EDT / 2017.07.23 2020 UTC
Wind: from the SW (220 degrees) at 7 MPH (6 KT):0
Visibility: greater than 7 mile(s):0
Temperature: 62 F (17 C)
Dew Point: 50 F (10 C)
Relative Humidity: 63%
Pressure (altimeter): 29.97 in. Hg (1015 hPa)
ob: EDDR 232020Z 22006KT CAVOK 17/10 Q1015 NOSIG
cycle: 20

Stuttgart

EDDS

METAR
EDDS 232020Z VRB01KT CAVOK 17/11 Q1016
EDDSMETAR lang
Stuttgart-Echterdingen, Germany (EDDS) 48-41N 009-13E 391M
Jul 23, 2017 - 04:20 PM EDT / 2017.07.23 2020 UTC
Wind: Variable at 1 MPH (1 KT):0
Visibility: greater than 7 mile(s):0
Temperature: 62 F (17 C)
Dew Point: 51 F (11 C)
Relative Humidity: 67%
Pressure (altimeter): 30.00 in. Hg (1016 hPa)
ob: EDDS 232020Z VRB01KT CAVOK 17/11 Q1016
cycle: 20

Berlin - Tegel

EDDT

METAR
EDDT 232020Z 31003KT CAVOK 19/12 Q1013 NOSIG
EDDTMETAR lang
Berlin-Tegel, Germany (EDDT) 52-34N 013-19E 37M
Jul 23, 2017 - 04:20 PM EDT / 2017.07.23 2020 UTC
Wind: from the NW (310 degrees) at 3 MPH (3 KT):0
Visibility: greater than 7 mile(s):0
Temperature: 66 F (19 C)
Dew Point: 53 F (12 C)
Relative Humidity: 63%
Pressure (altimeter): 29.91 in. Hg (1013 hPa)
ob: EDDT 232020Z 31003KT CAVOK 19/12 Q1013 NOSIG
cycle: 20

Hannover

EDDV

METAR
EDDV 232020Z 24003KT 200V280 9999 FEW045 17/11 Q1013 NOSIG
EDDVMETAR lang
Hannover, Germany (EDDV) 52-28N 009-41E 59M
Jul 23, 2017 - 04:20 PM EDT / 2017.07.23 2020 UTC
Wind: from the WSW (240 degrees) at 3 MPH (3 KT) (direction variable):0
Visibility: greater than 7 mile(s):0
Sky conditions: mostly clear
Temperature: 62 F (17 C)
Dew Point: 51 F (11 C)
Relative Humidity: 67%
Pressure (altimeter): 29.91 in. Hg (1013 hPa)
ob: EDDV 232020Z 24003KT 200V280 9999 FEW045 17/11 Q1013 NOSIG
cycle: 20

Bremen

EDDW

METAR
EDDW 232020Z VRB02KT 9999 FEW020TCU BKN035 16/14 Q1012 RESHRA NOSIG
EDDWMETAR lang
Bremen, Germany (EDDW) 53-03N 008-48E 5M
Jul 23, 2017 - 04:20 PM EDT / 2017.07.23 2020 UTC
Wind: Variable at 2 MPH (2 KT):0
Visibility: greater than 7 mile(s):0
Sky conditions: mostly cloudy
Weather: Towering cumulus clouds observed
Temperature: 60 F (16 C)
Dew Point: 57 F (14 C)
Relative Humidity: 87%
Pressure (altimeter): 29.88 in. Hg (1012 hPa)
ob: EDDW 232020Z VRB02KT 9999 FEW020TCU BKN035 16/14 Q1012 RESHRA NOSIG
cycle: 20